地図

経路データ

SID SEASON NUMBER BASIN SUBBASIN NAME ISO_TIME NATURE LAT LON WMO_WIND WMO_PRES WMO_AGENCY TRACK_TYPE DIST2LAND LANDFALL IFLAG USA_AGENCY USA_ATCF_ID USA_LAT USA_LON USA_RECORD USA_STATUS USA_WIND USA_PRES USA_SSHS USA_R34_NE USA_R34_SE USA_R34_SW USA_R34_NW USA_R50_NE USA_R50_SE USA_R50_SW USA_R50_NW USA_R64_NE USA_R64_SE USA_R64_SW USA_R64_NW USA_POCI USA_ROCI USA_RMW USA_EYE TOKYO_LAT TOKYO_LON TOKYO_GRADE TOKYO_WIND TOKYO_PRES TOKYO_R50_DIR TOKYO_R50_LONG TOKYO_R50_SHORT TOKYO_R30_DIR TOKYO_R30_LONG TOKYO_R30_SHORT TOKYO_LAND CMA_LAT CMA_LON CMA_CAT CMA_WIND CMA_PRES HKO_LAT HKO_LON HKO_CAT HKO_WIND HKO_PRES NEWDELHI_LAT NEWDELHI_LON NEWDELHI_GRADE NEWDELHI_WIND NEWDELHI_PRES NEWDELHI_CI NEWDELHI_DP NEWDELHI_POCI REUNION_LAT REUNION_LON REUNION_TYPE REUNION_WIND REUNION_PRES REUNION_TNUM REUNION_CI REUNION_RMW REUNION_R34_NE REUNION_R34_SE REUNION_R34_SW REUNION_R34_NW REUNION_R50_NE REUNION_R50_SE REUNION_R50_SW REUNION_R50_NW REUNION_R64_NE REUNION_R64_SE REUNION_R64_SW REUNION_R64_NW BOM_LAT BOM_LON BOM_TYPE BOM_WIND BOM_PRES BOM_TNUM BOM_CI BOM_RMW BOM_R34_NE BOM_R34_SE BOM_R34_SW BOM_R34_NW BOM_R50_NE BOM_R50_SE BOM_R50_SW BOM_R50_NW BOM_R64_NE BOM_R64_SE BOM_R64_SW BOM_R64_NW BOM_ROCI BOM_POCI BOM_EYE BOM_POS_METHOD BOM_PRES_METHOD NADI_LAT NADI_LON NADI_CAT NADI_WIND NADI_PRES WELLINGTON_LAT WELLINGTON_LON WELLINGTON_WIND WELLINGTON_PRES DS824_LAT DS824_LON DS824_STAGE DS824_WIND DS824_PRES TD9636_LAT TD9636_LON TD9636_STAGE TD9636_WIND TD9636_PRES TD9635_LAT TD9635_LON TD9635_WIND TD9635_PRES TD9635_ROCI NEUMANN_LAT NEUMANN_LON NEUMANN_CLASS NEUMANN_WIND NEUMANN_PRES MLC_LAT MLC_LON MLC_CLASS MLC_WIND MLC_PRES USA_GUST BOM_GUST BOM_GUST_PER REUNION_GUST REUNION_GUST_PER USA_SEAHGT USA_SEARAD_NE USA_SEARAD_SE USA_SEARAD_SW USA_SEARAD_NW STORM_SPEED STORM_DIR
1938021S16064 1938 9 SI MM NOT_NAMED 1938-01-21 06:00:00 NR -16.3000 64.3000 reunion main 816 807 _____O____O___ -1 -16.3000 64.6000 99 9.90000 -16.3000 64.0000 7 3 261
1938021S16064 1938 9 SI MM NOT_NAMED 1938-01-21 09:00:00 NR -16.3212 64.1588 main 807 789 _____P____P___ -1 -16.3141 64.5584 99 -16.3283 63.7593 7 3 260
1938021S16064 1938 9 SI MM NOT_NAMED 1938-01-21 12:00:00 NR -16.3472 64.0136 main 789 774 _____P____P___ -1 -16.3293 64.5124 99 -16.3651 63.5148 7 3 258
1938021S16064 1938 9 SI MM NOT_NAMED 1938-01-21 15:00:00 NR -16.3830 63.8603 main 774 756 _____P____P___ -1 -16.3465 64.4576 99 -16.4194 63.2630 7 3 254
1938021S16064 1938 9 SI MM NOT_NAMED 1938-01-21 18:00:00 NR -16.4334 63.6949 main 756 732 _____P____O___ -1 -16.3669 64.3898 99 -16.5000 63.0000 7 4 250
1938021S16064 1938 9 SI MM NOT_NAMED 1938-01-21 21:00:00 NR -16.5015 63.5144 main 732 708 _____P____P___ -1 -16.3914 64.3045 99 -16.6116 62.7242 7 4 248
1938021S16064 1938 9 SI MM NOT_NAMED 1938-01-22 00:00:00 NR -16.5818 63.3201 main 708 685 _____P____P___ -1 -16.4211 64.1974 99 -16.7425 62.4427 7 4 247
1938021S16064 1938 9 SI MM NOT_NAMED 1938-01-22 03:00:00 NR -16.6671 63.1144 main 685 667 _____P____P___ -1 -16.4570 64.0640 99 -16.8772 62.1648 7 4 247
1938021S16064 1938 9 SI MM NOT_NAMED 1938-01-22 06:00:00 NR -16.7500 62.9000 reunion main 667 643 _____O____O___ -1 -16.5000 63.9000 99 9.90000 -17.0000 61.9000 7 4 250
1938021S16064 1938 9 SI MM NOT_NAMED 1938-01-22 09:00:00 NR -16.8160 62.6876 main 643 619 _____P____P___ -1 -16.5509 63.7026 99 -17.0810 61.6725 7 4 253
1938021S16064 1938 9 SI MM NOT_NAMED 1938-01-22 12:00:00 NR -16.8796 62.4664 main 619 594 _____P____P___ -1 -16.6096 63.4756 99 -17.1496 61.4571 7 5 253
1938021S16064 1938 9 SI MM NOT_NAMED 1938-01-22 15:00:00 NR -16.9470 62.2313 main 594 570 _____P____P___ -1 -16.6755 63.2246 99 -17.2185 61.2381 7 5 253
1938021S16064 1938 9 SI MM NOT_NAMED 1938-01-22 18:00:00 NR -17.0241 61.9775 main 570 538 _____P____O___ -1 -16.7482 62.9549 99 -17.3000 61.0000 7 5 251
1938021S16064 1938 9 SI MM NOT_NAMED 1938-01-22 21:00:00 NR -17.1211 61.6908 main 538 507 _____P____P___ -1 -16.8274 62.6721 99 -17.4148 60.7095 7 6 250
1938021S16064 1938 9 SI MM NOT_NAMED 1938-01-23 00:00:00 NR -17.2277 61.3910 main 507 475 _____P____P___ -1 -16.9126 62.3817 99 -17.5427 60.4002 7 6 249
1938021S16064 1938 9 SI MM NOT_NAMED 1938-01-23 03:00:00 NR -17.3389 61.0900 main 475 444 _____P____P___ -1 -17.0036 62.0892 99 -17.6742 60.0908 7 6 248
1938021S16064 1938 9 SI MM NOT_NAMED 1938-01-23 06:00:00 NR -17.4500 60.8000 reunion main 444 421 _____O____O___ -1 -17.1000 61.8000 99 9.90000 -17.8000 59.8000 7 6 248
1938021S16064 1938 9 SI MM NOT_NAMED 1938-01-23 09:00:00 NR -17.5516 60.5485 main 406 391 _____P____P___ -1 -17.2003 61.5356 99 -17.9028 59.5613 7 5 247
1938021S16064 1938 9 SI MM NOT_NAMED 1938-01-23 12:00:00 NR -17.6534 60.3066 main 383 360 _____P____P___ -1 -17.3072 61.2710 99 -17.9996 59.3421 7 5 246
1938021S16064 1938 9 SI MM NOT_NAMED 1938-01-23 15:00:00 NR -17.7579 60.0667 main 360 330 _____P____P___ -1 -17.4191 61.0065 99 -18.0966 59.1269 7 5 245
1938021S16064 1938 9 SI MM NOT_NAMED 1938-01-23 18:00:00 NR -17.8673 59.8213 main 330 308 _____P____O___ -1 -17.5346 60.7425 99 -18.2000 58.9000 7 5 245
1938021S16064 1938 9 SI MM NOT_NAMED 1938-01-23 21:00:00 NR -17.9869 59.5574 main 308 279 _____P____P___ -1 -17.6519 60.4795 99 -18.3219 58.6354 7 6 245
1938021S16064 1938 9 SI MM NOT_NAMED 1938-01-24 00:00:00 NR -18.1099 59.2877 main 279 252 _____P____P___ -1 -17.7697 60.2178 99 -18.4500 58.3576 7 6 244
1938021S16064 1938 9 SI MM NOT_NAMED 1938-01-24 03:00:00 NR -18.2322 59.0169 main 252 232 _____P____P___ -1 -17.8862 59.9578 99 -18.5781 58.0760 7 6 245
1938021S16064 1938 9 SI MM NOT_NAMED 1938-01-24 06:00:00 NR -18.3500 58.7500 reunion main 232 207 _____O____O___ -1 -18.0000 59.7000 99 9.90000 -18.7000 57.8000 7 5 246
1938021S16064 1938 9 SI MM NOT_NAMED 1938-01-24 09:00:00 NR -18.4527 58.4898 main 197 186 _____P____P___ -1 -18.1025 59.4450 99 -18.8030 57.5345 7 5 248
1938021S16064 1938 9 SI MM NOT_NAMED 1938-01-24 12:00:00 NR -18.5513 58.2348 main 175 170 _____P____P___ -1 -18.2026 59.1923 99 -18.8999 57.2773 7 5 248
1938021S16064 1938 9 SI MM NOT_NAMED 1938-01-24 15:00:00 NR -18.6491 57.9864 main 170 156 _____P____P___ -1 -18.3013 58.9413 99 -18.9968 57.0314 7 5 247
1938021S16064 1938 9 SI MM NOT_NAMED 1938-01-24 18:00:00 NR -18.7497 57.7459 main 156 134 _____P____O___ -1 -18.3994 58.6917 99 -19.1000 56.8000 7 5 245
1938021S16064 1938 9 SI MM NOT_NAMED 1938-01-24 21:00:00 NR -18.8596 57.5144 main 134 124 _____P____P___ -1 -18.4974 58.4432 99 -19.2217 56.5856 7 5 243
1938021S16064 1938 9 SI MM NOT_NAMED 1938-01-25 00:00:00 NR -18.9731 57.2901 main 124 119 _____P____P___ -1 -18.5964 58.1954 99 -19.3498 56.3849 7 5 242
1938021S16064 1938 9 SI MM NOT_NAMED 1938-01-25 03:00:00 NR -19.0875 57.0698 main 119 118 _____P____P___ -1 -18.6970 57.9478 99 -19.4780 56.1918 7 5 241
1938021S16064 1938 9 SI MM NOT_NAMED 1938-01-25 06:00:00 NR -19.2000 56.8500 reunion main 118 122 _____O____O___ -1 -18.8000 57.7000 99 9.90000 -19.6000 56.0000 7 5 243
1938021S16064 1938 9 SI MM NOT_NAMED 1938-01-25 09:00:00 NR -19.3045 56.6171 main 129 129 _____P____P___ -1 -18.9059 57.4385 99 -19.7031 55.7958 7 5 245
1938021S16064 1938 9 SI MM NOT_NAMED 1938-01-25 12:00:00 NR -19.4069 56.3839 main 139 139 _____P____P___ -1 -19.0138 57.1755 99 -19.8000 55.5923 7 5 245
1938021S16064 1938 9 SI MM NOT_NAMED 1938-01-25 15:00:00 NR -19.5102 56.1531 main 151 151 _____P____P___ -1 -19.1235 56.9136 99 -19.8968 55.3927 7 5 244
1938021S16064 1938 9 SI MM NOT_NAMED 1938-01-25 18:00:00 NR -19.6176 55.9275 main 157 145 _____P____O___ -1 -19.2351 56.6549 99 -20.0000 55.2000 7 5 242
1938021S16064 1938 9 SI MM NOT_NAMED 1938-01-25 21:00:00 NR -19.7313 55.7091 main 145 134 _____P____P___ -1 -19.3486 56.4019 99 -20.1141 55.0164 7 4 240
1938021S16064 1938 9 SI MM NOT_NAMED 1938-01-26 00:00:00 NR -19.7955 55.5926 main 134 134 _____P____P___ -1 -19.4639 56.1568 99 -20.2376 54.8403 7 2 240
1938021S16064 1938 9 SI MM NOT_NAMED 1938-01-26 03:00:00 NR -19.8431 55.5044 main 134 123 _____P____P___ -1 -19.5810 55.9220 99 -20.3673 54.6690 7 1 243
1938021S16064 1938 9 SI MM NOT_NAMED 1938-01-26 06:00:00 NR -19.8600 55.4600 reunion main 123 123 _____O____O___ -1 -19.7000 55.7000 99 9.90000 -20.5000 54.5000 7 0 0
1938021S16064 1938 9 SI MM NOT_NAMED 1938-01-26 09:00:00 NR -19.8181 55.4892 main 134 123 _____P________ -1 -19.8181 55.4892 99 7 2 244
1938021S16064 1938 9 SI MM NOT_NAMED 1938-01-26 12:00:00 NR -19.9382 55.2902 main 123 102 _____P________ -1 -19.9382 55.2902 99 7 4 236
1938021S16064 1938 9 SI MM NOT_NAMED 1938-01-26 15:00:00 NR -20.0603 55.1023 main 102 94 _____P________ -1 -20.0603 55.1023 99 7 4 234
1938021S16064 1938 9 SI MM NOT_NAMED 1938-01-26 18:00:00 NR -20.1844 54.9245 main 98 93 _____P________ -1 -20.1844 54.9245 99 4 232
1938021S16064 1938 9 SI MM NOT_NAMED 1938-01-26 21:00:00 NR -20.3104 54.7562 main 93 91 _____P________ -1 -20.3104 54.7562 99 4 230
1938021S16064 1938 9 SI MM NOT_NAMED 1938-01-27 00:00:00 NR -20.4384 54.5966 main 99 91 _____P________ -1 -20.4384 54.5966 99 4 228
1938021S16064 1938 9 SI MM NOT_NAMED 1938-01-27 03:00:00 NR -20.5683 54.4447 main 100 100 _____P________ -1 -20.5683 54.4447 99 4 227
1938021S16064 1938 9 SI MM NOT_NAMED 1938-01-27 06:00:00 NR -20.7000 54.3000 reunion main 103 103 _____O________ -1 -20.7000 54.3000 99 9.90000 4 225
1938021S16064 1938 9 SI MM NOT_NAMED 1938-01-27 09:00:00 NR -20.8335 54.1615 main 109 109 _____P________ -1 -20.8335 54.1615 99 4 223
1938021S16064 1938 9 SI MM NOT_NAMED 1938-01-27 12:00:00 NR -20.9687 54.0285 main 125 125 _____P________ -1 -20.9687 54.0285 99 4 222
1938021S16064 1938 9 SI MM NOT_NAMED 1938-01-27 15:00:00 NR -21.1052 53.9002 main 134 134 _____P________ -1 -21.1052 53.9002 99 4 221
1938021S16064 1938 9 SI MM NOT_NAMED 1938-01-27 18:00:00 NR -21.2429 53.7757 main 145 145 _____P________ -1 -21.2429 53.7757 99 4 220
1938021S16064 1938 9 SI MM NOT_NAMED 1938-01-27 21:00:00 NR -21.3814 53.6543 main 158 158 _____P________ -1 -21.3814 53.6543 99 4 219
1938021S16064 1938 9 SI MM NOT_NAMED 1938-01-28 00:00:00 NR -21.5206 53.5350 main 181 181 _____P________ -1 -21.5206 53.5350 99 4 218
1938021S16064 1938 9 SI MM NOT_NAMED 1938-01-28 03:00:00 NR -21.6602 53.4172 main 198 198 _____P________ -1 -21.6602 53.4172 99 4 218
1938021S16064 1938 9 SI MM NOT_NAMED 1938-01-28 06:00:00 NR -21.8000 53.3000 reunion main 211 _____O________ -1 -21.8000 53.3000 99 9.90000 4 218

IBTrACS Databaseについて

本データベースは、米国NOAAが公開する1842年以降の世界の熱帯低気圧のベストトラックデータアーカイブInternational Best Track Archive for Climate Stewardship (IBTrACS)を、ウェブで閲覧しやすい形式に変換したものです。

最終更新日:2021-10-19